sensor_id;sensor_type;location;lat;lon;timestamp;temperature;humidity
15298;DHT22;7750;48.796;9.026;2023-02-04T00:02:13;10.50;87.60
15298;DHT22;7750;48.796;9.026;2023-02-04T00:07:13;10.50;87.70
15298;DHT22;7750;48.796;9.026;2023-02-04T00:12:15;10.50;87.90
15298;DHT22;7750;48.796;9.026;2023-02-04T00:17:16;10.50;88.00
15298;DHT22;7750;48.796;9.026;2023-02-04T00:22:17;10.50;88.00
15298;DHT22;7750;48.796;9.026;2023-02-04T00:27:17;10.50;88.00
15298;DHT22;7750;48.796;9.026;2023-02-04T00:32:18;10.50;87.80
15298;DHT22;7750;48.796;9.026;2023-02-04T00:37:18;10.50;87.70
15298;DHT22;7750;48.796;9.026;2023-02-04T00:42:19;10.50;87.60
15298;DHT22;7750;48.796;9.026;2023-02-04T00:47:20;10.50;87.50
15298;DHT22;7750;48.796;9.026;2023-02-04T00:52:21;10.60;87.30
15298;DHT22;7750;48.796;9.026;2023-02-04T00:57:21;10.60;87.30
15298;DHT22;7750;48.796;9.026;2023-02-04T01:02:22;10.60;87.50
15298;DHT22;7750;48.796;9.026;2023-02-04T01:07:22;10.70;87.40
15298;DHT22;7750;48.796;9.026;2023-02-04T01:12:23;10.60;87.10
15298;DHT22;7750;48.796;9.026;2023-02-04T01:17:26;10.60;86.90
15298;DHT22;7750;48.796;9.026;2023-02-04T01:22:27;10.60;86.60
15298;DHT22;7750;48.796;9.026;2023-02-04T01:27:27;10.60;86.40
15298;DHT22;7750;48.796;9.026;2023-02-04T01:32:28;10.60;86.00
15298;DHT22;7750;48.796;9.026;2023-02-04T01:37:29;10.60;86.10
15298;DHT22;7750;48.796;9.026;2023-02-04T01:42:29;10.60;86.00
15298;DHT22;7750;48.796;9.026;2023-02-04T01:47:30;10.50;85.70
15298;DHT22;7750;48.796;9.026;2023-02-04T01:52:37;10.50;85.20
15298;DHT22;7750;48.796;9.026;2023-02-04T01:57:39;10.50;83.90
15298;DHT22;7750;48.796;9.026;2023-02-04T02:02:44;10.40;83.40
15298;DHT22;7750;48.796;9.026;2023-02-04T02:07:45;10.30;83.70
15298;DHT22;7750;48.796;9.026;2023-02-04T02:12:47;10.30;84.00
15298;DHT22;7750;48.796;9.026;2023-02-04T02:17:48;10.20;84.30
15298;DHT22;7750;48.796;9.026;2023-02-04T02:27:56;10.10;85.00
15298;DHT22;7750;48.796;9.026;2023-02-04T02:32:57;10.10;85.30
15298;DHT22;7750;48.796;9.026;2023-02-04T02:37:58;10.00;85.40
15298;DHT22;7750;48.796;9.026;2023-02-04T02:42:59;9.90;86.10
15298;DHT22;7750;48.796;9.026;2023-02-04T02:48:00;9.90;85.60
15298;DHT22;7750;48.796;9.026;2023-02-04T02:53:12;9.90;85.60
15298;DHT22;7750;48.796;9.026;2023-02-04T02:58:36;9.90;85.90
15298;DHT22;7750;48.796;9.026;2023-02-04T03:03:42;9.90;86.00
15298;DHT22;7750;48.796;9.026;2023-02-04T03:08:44;9.90;86.20
15298;DHT22;7750;48.796;9.026;2023-02-04T03:13:44;9.90;86.30
15298;DHT22;7750;48.796;9.026;2023-02-04T03:18:46;9.90;86.50
15298;DHT22;7750;48.796;9.026;2023-02-04T03:23:47;9.90;86.50
15298;DHT22;7750;48.796;9.026;2023-02-04T03:28:48;9.90;85.90
15298;DHT22;7750;48.796;9.026;2023-02-04T03:33:48;9.90;85.80
15298;DHT22;7750;48.796;9.026;2023-02-04T03:38:49;9.90;85.70
15298;DHT22;7750;48.796;9.026;2023-02-04T03:43:51;9.90;85.90
15298;DHT22;7750;48.796;9.026;2023-02-04T03:48:52;9.90;85.80
15298;DHT22;7750;48.796;9.026;2023-02-04T03:53:52;9.90;86.00
15298;DHT22;7750;48.796;9.026;2023-02-04T03:58:53;9.90;86.20
15298;DHT22;7750;48.796;9.026;2023-02-04T04:03:53;9.90;86.10
15298;DHT22;7750;48.796;9.026;2023-02-04T04:08:54;9.90;86.10
15298;DHT22;7750;48.796;9.026;2023-02-04T04:13:55;9.90;86.30
15298;DHT22;7750;48.796;9.026;2023-02-04T04:18:55;9.90;86.50
15298;DHT22;7750;48.796;9.026;2023-02-04T04:23:56;9.90;86.40
15298;DHT22;7750;48.796;9.026;2023-02-04T04:28:56;9.80;86.50
15298;DHT22;7750;48.796;9.026;2023-02-04T04:33:57;9.90;86.60
15298;DHT22;7750;48.796;9.026;2023-02-04T04:38:58;9.90;86.70
15298;DHT22;7750;48.796;9.026;2023-02-04T04:43:59;9.90;86.70
15298;DHT22;7750;48.796;9.026;2023-02-04T04:48:59;9.80;86.50
15298;DHT22;7750;48.796;9.026;2023-02-04T04:54:00;9.90;86.40
15298;DHT22;7750;48.796;9.026;2023-02-04T04:59:00;9.90;86.30
15298;DHT22;7750;48.796;9.026;2023-02-04T05:04:02;9.90;86.40
15298;DHT22;7750;48.796;9.026;2023-02-04T05:09:03;9.90;86.30
15298;DHT22;7750;48.796;9.026;2023-02-04T05:14:04;10.00;86.30
15298;DHT22;7750;48.796;9.026;2023-02-04T05:19:05;9.90;86.20
15298;DHT22;7750;48.796;9.026;2023-02-04T05:24:05;10.00;86.20
15298;DHT22;7750;48.796;9.026;2023-02-04T05:29:06;10.00;86.10
15298;DHT22;7750;48.796;9.026;2023-02-04T05:34:07;10.00;86.00
15298;DHT22;7750;48.796;9.026;2023-02-04T05:39:07;10.10;86.00
15298;DHT22;7750;48.796;9.026;2023-02-04T05:44:08;10.10;85.90
15298;DHT22;7750;48.796;9.026;2023-02-04T05:49:08;10.10;85.70
15298;DHT22;7750;48.796;9.026;2023-02-04T05:54:09;10.20;86.30
15298;DHT22;7750;48.796;9.026;2023-02-04T05:59:10;10.10;85.50
15298;DHT22;7750;48.796;9.026;2023-02-04T06:04:11;10.10;85.50
15298;DHT22;7750;48.796;9.026;2023-02-04T06:09:12;10.10;85.20
15298;DHT22;7750;48.796;9.026;2023-02-04T06:14:12;10.10;85.10
15298;DHT22;7750;48.796;9.026;2023-02-04T06:19:13;10.10;85.10
15298;DHT22;7750;48.796;9.026;2023-02-04T06:24:14;10.00;85.20
15298;DHT22;7750;48.796;9.026;2023-02-04T06:29:14;10.00;85.20
15298;DHT22;7750;48.796;9.026;2023-02-04T06:34:15;9.90;85.30
15298;DHT22;7750;48.796;9.026;2023-02-04T06:39:15;9.90;85.20
15298;DHT22;7750;48.796;9.026;2023-02-04T06:44:16;9.80;85.20
15298;DHT22;7750;48.796;9.026;2023-02-04T06:49:16;9.80;85.20
15298;DHT22;7750;48.796;9.026;2023-02-04T06:54:17;9.80;85.20
15298;DHT22;7750;48.796;9.026;2023-02-04T06:59:18;9.80;85.10
15298;DHT22;7750;48.796;9.026;2023-02-04T07:04:18;9.80;85.70
15298;DHT22;7750;48.796;9.026;2023-02-04T07:09:19;9.70;85.00
15298;DHT22;7750;48.796;9.026;2023-02-04T07:14:20;9.70;84.90
15298;DHT22;7750;48.796;9.026;2023-02-04T07:19:20;9.70;85.00
15298;DHT22;7750;48.796;9.026;2023-02-04T07:24:22;9.70;85.00
15298;DHT22;7750;48.796;9.026;2023-02-04T07:29:23;9.70;85.00
15298;DHT22;7750;48.796;9.026;2023-02-04T07:34:24;9.70;85.00
15298;DHT22;7750;48.796;9.026;2023-02-04T07:39:25;9.70;85.00
15298;DHT22;7750;48.796;9.026;2023-02-04T07:44:27;9.70;84.90
15298;DHT22;7750;48.796;9.026;2023-02-04T07:49:28;9.80;84.80
15298;DHT22;7750;48.796;9.026;2023-02-04T07:54:29;9.70;84.70
15298;DHT22;7750;48.796;9.026;2023-02-04T07:59:29;9.70;84.80
15298;DHT22;7750;48.796;9.026;2023-02-04T08:04:30;9.70;84.90
15298;DHT22;7750;48.796;9.026;2023-02-04T08:09:31;9.70;85.00
15298;DHT22;7750;48.796;9.026;2023-02-04T08:14:31;9.70;85.00
15298;DHT22;7750;48.796;9.026;2023-02-04T08:19:32;9.70;85.10
15298;DHT22;7750;48.796;9.026;2023-02-04T08:24:32;9.70;85.30
15298;DHT22;7750;48.796;9.026;2023-02-04T08:29:33;9.70;85.30
15298;DHT22;7750;48.796;9.026;2023-02-04T08:34:34;9.80;85.50
15298;DHT22;7750;48.796;9.026;2023-02-04T08:39:34;9.80;85.50
15298;DHT22;7750;48.796;9.026;2023-02-04T08:44:35;9.90;85.60
15298;DHT22;7750;48.796;9.026;2023-02-04T08:49:36;9.90;85.80
15298;DHT22;7750;48.796;9.026;2023-02-04T08:54:37;10.00;86.00
15298;DHT22;7750;48.796;9.026;2023-02-04T08:59:37;10.10;85.60
15298;DHT22;7750;48.796;9.026;2023-02-04T09:04:38;10.20;85.40
15298;DHT22;7750;48.796;9.026;2023-02-04T09:09:38;10.20;85.20
15298;DHT22;7750;48.796;9.026;2023-02-04T09:14:39;10.30;85.50
15298;DHT22;7750;48.796;9.026;2023-02-04T09:19:40;10.40;85.30
15298;DHT22;7750;48.796;9.026;2023-02-04T09:24:40;10.60;85.10
15298;DHT22;7750;48.796;9.026;2023-02-04T09:29:41;10.70;84.20
15298;DHT22;7750;48.796;9.026;2023-02-04T09:34:41;10.80;83.90
15298;DHT22;7750;48.796;9.026;2023-02-04T09:39:42;10.80;83.70
15298;DHT22;7750;48.796;9.026;2023-02-04T09:44:43;10.90;83.90
15298;DHT22;7750;48.796;9.026;2023-02-04T09:49:44;11.00;82.50
15298;DHT22;7750;48.796;9.026;2023-02-04T09:54:46;11.00;81.60
15298;DHT22;7750;48.796;9.026;2023-02-04T09:59:48;11.00;82.60
15298;DHT22;7750;48.796;9.026;2023-02-04T10:04:51;11.00;82.00
15298;DHT22;7750;48.796;9.026;2023-02-04T10:09:54;11.10;81.20
15298;DHT22;7750;48.796;9.026;2023-02-04T10:14:55;11.10;80.60
15298;DHT22;7750;48.796;9.026;2023-02-04T10:19:56;11.10;79.80
15298;DHT22;7750;48.796;9.026;2023-02-04T10:24:56;11.10;79.70
15298;DHT22;7750;48.796;9.026;2023-02-04T10:29:57;11.10;79.70
15298;DHT22;7750;48.796;9.026;2023-02-04T10:35:00;11.10;78.70
15298;DHT22;7750;48.796;9.026;2023-02-04T10:40:01;11.10;76.30
15298;DHT22;7750;48.796;9.026;2023-02-04T10:45:01;11.00;78.00
15298;DHT22;7750;48.796;9.026;2023-02-04T10:50:17;11.00;78.50
15298;DHT22;7750;48.796;9.026;2023-02-04T10:55:20;11.00;78.00
15298;DHT22;7750;48.796;9.026;2023-02-04T11:00:23;11.00;77.90
15298;DHT22;7750;48.796;9.026;2023-02-04T11:05:32;11.00;76.00
15298;DHT22;7750;48.796;9.026;2023-02-04T11:10:36;11.00;76.60
15298;DHT22;7750;48.796;9.026;2023-02-04T11:20:50;11.00;75.80
15298;DHT22;7750;48.796;9.026;2023-02-04T11:26:13;11.00;74.80
15298;DHT22;7750;48.796;9.026;2023-02-04T11:36:20;10.90;75.90
15298;DHT22;7750;48.796;9.026;2023-02-04T11:41:26;10.90;75.00
15298;DHT22;7750;48.796;9.026;2023-02-04T11:46:28;10.90;75.30
15298;DHT22;7750;48.796;9.026;2023-02-04T11:51:31;11.00;75.00
15298;DHT22;7750;48.796;9.026;2023-02-04T11:56:35;11.00;75.70
15298;DHT22;7750;48.796;9.026;2023-02-04T12:01:36;11.00;75.60
15298;DHT22;7750;48.796;9.026;2023-02-04T12:06:36;11.10;75.50
15298;DHT22;7750;48.796;9.026;2023-02-04T12:11:37;11.20;76.00
15298;DHT22;7750;48.796;9.026;2023-02-04T12:16:49;11.30;75.80
15298;DHT22;7750;48.796;9.026;2023-02-04T12:21:52;11.50;74.90
15298;DHT22;7750;48.796;9.026;2023-02-04T12:26:54;11.60;74.70
15298;DHT22;7750;48.796;9.026;2023-02-04T12:31:54;11.70;75.20
15298;DHT22;7750;48.796;9.026;2023-02-04T12:36:55;11.70;74.10
15298;DHT22;7750;48.796;9.026;2023-02-04T12:41:55;11.80;73.40
15298;DHT22;7750;48.796;9.026;2023-02-04T12:46:56;11.70;74.00
15298;DHT22;7750;48.796;9.026;2023-02-04T12:51:57;11.80;70.50
15298;DHT22;7750;48.796;9.026;2023-02-04T12:57:01;11.70;70.80
15298;DHT22;7750;48.796;9.026;2023-02-04T13:02:02;11.70;71.30
15298;DHT22;7750;48.796;9.026;2023-02-04T13:07:03;11.80;70.30
15298;DHT22;7750;48.796;9.026;2023-02-04T13:12:06;11.80;71.30
15298;DHT22;7750;48.796;9.026;2023-02-04T13:17:07;11.80;71.40
15298;DHT22;7750;48.796;9.026;2023-02-04T13:22:07;11.80;69.10
15298;DHT22;7750;48.796;9.026;2023-02-04T13:27:08;11.70;69.50
15298;DHT22;7750;48.796;9.026;2023-02-04T13:32:09;11.80;71.40
15298;DHT22;7750;48.796;9.026;2023-02-04T13:37:10;11.90;72.00
15298;DHT22;7750;48.796;9.026;2023-02-04T13:42:10;12.00;72.10
15298;DHT22;7750;48.796;9.026;2023-02-04T13:47:11;12.10;72.00
15298;DHT22;7750;48.796;9.026;2023-02-04T13:52:12;12.10;71.40
15298;DHT22;7750;48.796;9.026;2023-02-04T13:57:12;12.20;71.70
15298;DHT22;7750;48.796;9.026;2023-02-04T14:02:13;12.20;70.30
15298;DHT22;7750;48.796;9.026;2023-02-04T14:07:13;12.30;70.90
15298;DHT22;7750;48.796;9.026;2023-02-04T14:12:14;12.30;70.70
15298;DHT22;7750;48.796;9.026;2023-02-04T14:17:15;12.40;70.60
15298;DHT22;7750;48.796;9.026;2023-02-04T14:22:16;12.50;70.30
15298;DHT22;7750;48.796;9.026;2023-02-04T14:27:16;12.40;70.40
15298;DHT22;7750;48.796;9.026;2023-02-04T14:32:17;12.40;69.90
15298;DHT22;7750;48.796;9.026;2023-02-04T14:37:17;12.40;69.40
15298;DHT22;7750;48.796;9.026;2023-02-04T14:42:18;12.30;69.90
15298;DHT22;7750;48.796;9.026;2023-02-04T14:47:18;12.30;70.20
15298;DHT22;7750;48.796;9.026;2023-02-04T14:52:19;12.40;69.60
15298;DHT22;7750;48.796;9.026;2023-02-04T14:57:20;12.40;69.80
15298;DHT22;7750;48.796;9.026;2023-02-04T15:02:20;12.40;69.50
15298;DHT22;7750;48.796;9.026;2023-02-04T15:07:21;12.30;68.90
15298;DHT22;7750;48.796;9.026;2023-02-04T15:12:22;12.20;68.80
15298;DHT22;7750;48.796;9.026;2023-02-04T15:17:23;12.20;68.90
15298;DHT22;7750;48.796;9.026;2023-02-04T15:22:24;12.10;68.70
15298;DHT22;7750;48.796;9.026;2023-02-04T15:27:24;12.10;68.90
15298;DHT22;7750;48.796;9.026;2023-02-04T15:32:25;12.00;68.50
15298;DHT22;7750;48.796;9.026;2023-02-04T15:37:25;12.00;68.20
15298;DHT22;7750;48.796;9.026;2023-02-04T15:42:26;11.90;68.30
15298;DHT22;7750;48.796;9.026;2023-02-04T15:47:27;11.80;68.50
15298;DHT22;7750;48.796;9.026;2023-02-04T15:52:27;11.80;68.40
15298;DHT22;7750;48.796;9.026;2023-02-04T15:57:28;11.70;68.20
15298;DHT22;7750;48.796;9.026;2023-02-04T16:02:29;11.70;68.90
15298;DHT22;7750;48.796;9.026;2023-02-04T16:07:30;11.60;69.40
15298;DHT22;7750;48.796;9.026;2023-02-04T16:12:31;11.50;69.60
15298;DHT22;7750;48.796;9.026;2023-02-04T16:17:32;11.50;69.40
15298;DHT22;7750;48.796;9.026;2023-02-04T16:22:33;11.40;69.50
15298;DHT22;7750;48.796;9.026;2023-02-04T16:27:33;11.30;69.40
15298;DHT22;7750;48.796;9.026;2023-02-04T16:32:34;11.10;69.20
15298;DHT22;7750;48.796;9.026;2023-02-04T16:37:36;11.00;69.30
15298;DHT22;7750;48.796;9.026;2023-02-04T16:42:37;10.90;69.40
15298;DHT22;7750;48.796;9.026;2023-02-04T16:47:38;10.80;69.40
15298;DHT22;7750;48.796;9.026;2023-02-04T16:52:39;10.70;69.40
15298;DHT22;7750;48.796;9.026;2023-02-04T16:57:39;10.60;69.60
15298;DHT22;7750;48.796;9.026;2023-02-04T17:02:42;10.50;69.60
15298;DHT22;7750;48.796;9.026;2023-02-04T17:07:43;10.40;69.60
15298;DHT22;7750;48.796;9.026;2023-02-04T17:12:44;10.30;69.50
15298;DHT22;7750;48.796;9.026;2023-02-04T17:17:44;10.20;69.50
15298;DHT22;7750;48.796;9.026;2023-02-04T17:22:45;10.10;69.40
15298;DHT22;7750;48.796;9.026;2023-02-04T17:27:46;10.00;69.40
15298;DHT22;7750;48.796;9.026;2023-02-04T17:32:49;9.80;69.40
15298;DHT22;7750;48.796;9.026;2023-02-04T17:37:50;9.70;69.30
15298;DHT22;7750;48.796;9.026;2023-02-04T17:42:52;9.60;69.50
15298;DHT22;7750;48.796;9.026;2023-02-04T17:47:52;9.50;69.50
15298;DHT22;7750;48.796;9.026;2023-02-04T17:52:53;10.00;67.60
15298;DHT22;7750;48.796;9.026;2023-02-04T17:57:55;9.70;68.80
15298;DHT22;7750;48.796;9.026;2023-02-04T18:02:58;9.40;69.00
15298;DHT22;7750;48.796;9.026;2023-02-04T18:08:11;9.30;69.30
15298;DHT22;7750;48.796;9.026;2023-02-04T18:13:20;9.10;69.40
15298;DHT22;7750;48.796;9.026;2023-02-04T18:18:26;9.00;69.50
15298;DHT22;7750;48.796;9.026;2023-02-04T18:23:29;8.90;69.70
15298;DHT22;7750;48.796;9.026;2023-02-04T18:28:33;8.70;69.80
15298;DHT22;7750;48.796;9.026;2023-02-04T18:33:35;8.70;70.00
15298;DHT22;7750;48.796;9.026;2023-02-04T18:38:38;8.60;70.10
15298;DHT22;7750;48.796;9.026;2023-02-04T18:43:39;8.50;70.30
15298;DHT22;7750;48.796;9.026;2023-02-04T18:48:54;8.40;70.30
15298;DHT22;7750;48.796;9.026;2023-02-04T18:54:00;8.40;70.30
15298;DHT22;7750;48.796;9.026;2023-02-04T18:59:01;8.30;70.30
15298;DHT22;7750;48.796;9.026;2023-02-04T19:04:23;8.20;70.30
15298;DHT22;7750;48.796;9.026;2023-02-04T19:09:28;8.10;70.30
15298;DHT22;7750;48.796;9.026;2023-02-04T19:14:38;8.00;70.40
15298;DHT22;7750;48.796;9.026;2023-02-04T19:19:42;7.90;70.50
15298;DHT22;7750;48.796;9.026;2023-02-04T19:24:44;7.90;70.80
15298;DHT22;7750;48.796;9.026;2023-02-04T19:29:47;7.80;70.90
15298;DHT22;7750;48.796;9.026;2023-02-04T19:34:48;7.70;70.90
15298;DHT22;7750;48.796;9.026;2023-02-04T19:39:53;7.70;71.20
15298;DHT22;7750;48.796;9.026;2023-02-04T19:44:56;7.70;71.50
15298;DHT22;7750;48.796;9.026;2023-02-04T19:50:18;7.70;71.60
15298;DHT22;7750;48.796;9.026;2023-02-04T20:05:33;7.50;72.10
15298;DHT22;7750;48.796;9.026;2023-02-04T20:10:34;7.50;72.20
15298;DHT22;7750;48.796;9.026;2023-02-04T20:15:35;7.40;72.40
15298;DHT22;7750;48.796;9.026;2023-02-04T20:20:36;7.40;72.60
15298;DHT22;7750;48.796;9.026;2023-02-04T20:25:40;7.40;72.80
15298;DHT22;7750;48.796;9.026;2023-02-04T20:30:41;7.40;72.90
15298;DHT22;7750;48.796;9.026;2023-02-04T20:40:52;7.40;73.10
15298;DHT22;7750;48.796;9.026;2023-02-04T20:46:01;7.40;73.00
15298;DHT22;7750;48.796;9.026;2023-02-04T20:51:23;7.30;73.00
15298;DHT22;7750;48.796;9.026;2023-02-04T20:56:30;7.30;73.10
15298;DHT22;7750;48.796;9.026;2023-02-04T21:01:34;7.30;72.90
15298;DHT22;7750;48.796;9.026;2023-02-04T21:06:36;7.20;72.70
15298;DHT22;7750;48.796;9.026;2023-02-04T21:11:36;7.10;72.60
15298;DHT22;7750;48.796;9.026;2023-02-04T21:16:37;7.00;72.60
15298;DHT22;7750;48.796;9.026;2023-02-04T21:21:38;7.00;72.70
15298;DHT22;7750;48.796;9.026;2023-02-04T21:26:38;7.00;72.60
15298;DHT22;7750;48.796;9.026;2023-02-04T21:31:39;6.90;72.60
15298;DHT22;7750;48.796;9.026;2023-02-04T21:36:40;6.80;72.80
15298;DHT22;7750;48.796;9.026;2023-02-04T21:41:40;6.80;73.00
15298;DHT22;7750;48.796;9.026;2023-02-04T21:46:41;6.70;73.10
15298;DHT22;7750;48.796;9.026;2023-02-04T21:51:41;6.70;73.40
15298;DHT22;7750;48.796;9.026;2023-02-04T21:56:42;6.70;73.50
15298;DHT22;7750;48.796;9.026;2023-02-04T22:01:43;6.80;73.80
15298;DHT22;7750;48.796;9.026;2023-02-04T22:06:43;6.70;74.50
15298;DHT22;7750;48.796;9.026;2023-02-04T22:11:44;6.70;73.90
15298;DHT22;7750;48.796;9.026;2023-02-04T22:16:47;6.70;74.00
15298;DHT22;7750;48.796;9.026;2023-02-04T22:21:48;6.70;74.20
15298;DHT22;7750;48.796;9.026;2023-02-04T22:26:48;6.70;74.30
15298;DHT22;7750;48.796;9.026;2023-02-04T22:31:50;6.70;74.30
15298;DHT22;7750;48.796;9.026;2023-02-04T22:36:52;6.70;75.10
15298;DHT22;7750;48.796;9.026;2023-02-04T22:41:52;6.70;74.50
15298;DHT22;7750;48.796;9.026;2023-02-04T22:46:53;6.70;74.60
15298;DHT22;7750;48.796;9.026;2023-02-04T22:51:54;6.70;74.70
15298;DHT22;7750;48.796;9.026;2023-02-04T22:56:55;6.70;74.70
15298;DHT22;7750;48.796;9.026;2023-02-04T23:01:58;6.70;74.90
15298;DHT22;7750;48.796;9.026;2023-02-04T23:06:59;6.60;74.90
15298;DHT22;7750;48.796;9.026;2023-02-04T23:12:04;6.70;75.00
15298;DHT22;7750;48.796;9.026;2023-02-04T23:17:15;6.60;75.20
15298;DHT22;7750;48.796;9.026;2023-02-04T23:22:16;6.60;76.10
15298;DHT22;7750;48.796;9.026;2023-02-04T23:27:17;6.70;75.60
15298;DHT22;7750;48.796;9.026;2023-02-04T23:32:18;6.70;75.80
15298;DHT22;7750;48.796;9.026;2023-02-04T23:37:18;6.70;75.80
15298;DHT22;7750;48.796;9.026;2023-02-04T23:42:19;6.80;75.90
15298;DHT22;7750;48.796;9.026;2023-02-04T23:47:19;6.80;76.00
15298;DHT22;7750;48.796;9.026;2023-02-04T23:52:20;6.80;76.20
15298;DHT22;7750;48.796;9.026;2023-02-04T23:57:21;6.80;76.30
